sensor_id;sensor_type;location;lat;lon;timestamp;temperature;humidity
6964;DHT22;3522;50.856;7.278;2022-11-24T15:58:29;9.10;99.90
6964;DHT22;3522;50.856;7.278;2022-11-24T16:00:56;9.10;99.90
6964;DHT22;3522;50.856;7.278;2022-11-24T16:03:23;9.10;99.90
6964;DHT22;3522;50.856;7.278;2022-11-24T16:05:50;9.00;99.90
6964;DHT22;3522;50.856;7.278;2022-11-24T16:08:17;9.00;99.90
6964;DHT22;3522;50.856;7.278;2022-11-24T16:10:44;9.00;99.90
6964;DHT22;3522;50.856;7.278;2022-11-24T16:13:11;9.00;99.90
6964;DHT22;3522;50.856;7.278;2022-11-24T16:15:39;9.00;99.90
6964;DHT22;3522;50.856;7.278;2022-11-24T16:18:05;8.90;99.90
6964;DHT22;3522;50.856;7.278;2022-11-24T16:20:32;8.90;99.90
6964;DHT22;3522;50.856;7.278;2022-11-24T16:23:00;8.90;99.90
6964;DHT22;3522;50.856;7.278;2022-11-24T16:25:26;8.90;99.90
6964;DHT22;3522;50.856;7.278;2022-11-24T16:27:53;8.80;99.90
6964;DHT22;3522;50.856;7.278;2022-11-24T16:30:20;8.80;99.90
6964;DHT22;3522;50.856;7.278;2022-11-24T16:32:48;8.70;99.90
6964;DHT22;3522;50.856;7.278;2022-11-24T16:35:14;8.60;99.90
6964;DHT22;3522;50.856;7.278;2022-11-24T16:37:41;8.60;99.90
6964;DHT22;3522;50.856;7.278;2022-11-24T16:40:08;8.60;99.90
6964;DHT22;3522;50.856;7.278;2022-11-24T16:42:35;8.50;99.90
6964;DHT22;3522;50.856;7.278;2022-11-24T16:45:01;8.50;99.90
6964;DHT22;3522;50.856;7.278;2022-11-24T16:47:28;8.50;99.90
6964;DHT22;3522;50.856;7.278;2022-11-24T16:49:56;8.40;99.90
6964;DHT22;3522;50.856;7.278;2022-11-24T16:52:23;8.40;99.90
6964;DHT22;3522;50.856;7.278;2022-11-24T16:54:49;8.30;99.90
6964;DHT22;3522;50.856;7.278;2022-11-24T16:57:16;8.30;99.90
6964;DHT22;3522;50.856;7.278;2022-11-24T16:59:42;8.20;99.90
6964;DHT22;3522;50.856;7.278;2022-11-24T17:02:10;8.20;99.90
6964;DHT22;3522;50.856;7.278;2022-11-24T17:04:37;8.10;99.90
6964;DHT22;3522;50.856;7.278;2022-11-24T17:07:05;8.10;99.90
6964;DHT22;3522;50.856;7.278;2022-11-24T17:09:32;8.00;99.90
6964;DHT22;3522;50.856;7.278;2022-11-24T17:11:59;8.00;99.90
6964;DHT22;3522;50.856;7.278;2022-11-24T17:14:25;8.00;99.90
6964;DHT22;3522;50.856;7.278;2022-11-24T17:16:52;8.00;99.90
6964;DHT22;3522;50.856;7.278;2022-11-24T17:19:19;7.90;99.90
6964;DHT22;3522;50.856;7.278;2022-11-24T17:21:45;7.90;99.90
6964;DHT22;3522;50.856;7.278;2022-11-24T17:24:13;7.90;99.90
6964;DHT22;3522;50.856;7.278;2022-11-24T17:26:41;7.90;99.90
6964;DHT22;3522;50.856;7.278;2022-11-24T17:29:08;7.80;99.90
6964;DHT22;3522;50.856;7.278;2022-11-24T17:31:35;7.80;99.90
6964;DHT22;3522;50.856;7.278;2022-11-24T17:34:02;7.80;99.90
6964;DHT22;3522;50.856;7.278;2022-11-24T17:36:29;7.70;99.90
6964;DHT22;3522;50.856;7.278;2022-11-24T17:38:57;7.70;99.90
6964;DHT22;3522;50.856;7.278;2022-11-24T17:41:25;7.70;99.90
6964;DHT22;3522;50.856;7.278;2022-11-24T17:43:52;7.60;99.90
6964;DHT22;3522;50.856;7.278;2022-11-24T17:46:19;7.60;99.90
6964;DHT22;3522;50.856;7.278;2022-11-24T17:48:46;7.60;99.90
6964;DHT22;3522;50.856;7.278;2022-11-24T17:51:14;7.50;99.90
6964;DHT22;3522;50.856;7.278;2022-11-24T17:53:41;7.50;99.90
6964;DHT22;3522;50.856;7.278;2022-11-24T17:56:10;7.50;99.90
6964;DHT22;3522;50.856;7.278;2022-11-24T17:58:38;7.50;99.90
6964;DHT22;3522;50.856;7.278;2022-11-24T18:01:05;7.50;99.90
6964;DHT22;3522;50.856;7.278;2022-11-24T18:03:32;7.50;99.90
6964;DHT22;3522;50.856;7.278;2022-11-24T18:06:03;7.50;99.90
6964;DHT22;3522;50.856;7.278;2022-11-24T18:08:30;7.50;99.90
6964;DHT22;3522;50.856;7.278;2022-11-24T18:11:01;7.50;99.90
6964;DHT22;3522;50.856;7.278;2022-11-24T18:13:28;7.40;99.90
6964;DHT22;3522;50.856;7.278;2022-11-24T18:15:58;7.40;99.90
6964;DHT22;3522;50.856;7.278;2022-11-24T18:18:25;7.40;99.90
6964;DHT22;3522;50.856;7.278;2022-11-24T18:20:52;7.50;99.90
6964;DHT22;3522;50.856;7.278;2022-11-24T18:23:19;7.40;99.90
6964;DHT22;3522;50.856;7.278;2022-11-24T18:25:50;7.40;99.90
6964;DHT22;3522;50.856;7.278;2022-11-24T18:28:17;7.40;99.90
6964;DHT22;3522;50.856;7.278;2022-11-24T18:30:44;7.40;99.90
6964;DHT22;3522;50.856;7.278;2022-11-24T18:33:12;7.40;99.90
6964;DHT22;3522;50.856;7.278;2022-11-24T18:35:39;7.30;99.90
6964;DHT22;3522;50.856;7.278;2022-11-24T18:38:05;7.30;99.90
6964;DHT22;3522;50.856;7.278;2022-11-24T18:40:32;7.30;99.90
6964;DHT22;3522;50.856;7.278;2022-11-24T18:43:02;7.30;99.90
6964;DHT22;3522;50.856;7.278;2022-11-24T18:45:29;7.30;99.90
6964;DHT22;3522;50.856;7.278;2022-11-24T18:47:56;7.20;99.90
6964;DHT22;3522;50.856;7.278;2022-11-24T18:50:24;7.20;99.90
6964;DHT22;3522;50.856;7.278;2022-11-24T18:52:51;7.20;99.90
6964;DHT22;3522;50.856;7.278;2022-11-24T18:55:20;7.20;99.90
6964;DHT22;3522;50.856;7.278;2022-11-24T18:57:46;7.20;99.90
6964;DHT22;3522;50.856;7.278;2022-11-24T19:00:13;7.10;99.90
6964;DHT22;3522;50.856;7.278;2022-11-24T19:02:40;7.10;99.90
6964;DHT22;3522;50.856;7.278;2022-11-24T19:05:07;7.10;99.90
6964;DHT22;3522;50.856;7.278;2022-11-24T19:07:34;7.00;99.90
6964;DHT22;3522;50.856;7.278;2022-11-24T19:10:01;7.00;99.90
6964;DHT22;3522;50.856;7.278;2022-11-24T19:12:28;7.00;99.90
6964;DHT22;3522;50.856;7.278;2022-11-24T19:14:54;7.00;99.90
6964;DHT22;3522;50.856;7.278;2022-11-24T19:17:21;6.90;99.90
6964;DHT22;3522;50.856;7.278;2022-11-24T19:19:48;6.90;99.90
6964;DHT22;3522;50.856;7.278;2022-11-24T19:22:16;6.90;99.90
6964;DHT22;3522;50.856;7.278;2022-11-24T19:24:44;6.90;99.90
6964;DHT22;3522;50.856;7.278;2022-11-24T19:27:11;6.90;99.90
6964;DHT22;3522;50.856;7.278;2022-11-24T19:29:38;6.90;99.90
6964;DHT22;3522;50.856;7.278;2022-11-24T19:32:05;6.80;99.90
6964;DHT22;3522;50.856;7.278;2022-11-24T19:34:31;6.90;99.90
6964;DHT22;3522;50.856;7.278;2022-11-24T19:36:58;6.80;99.90
6964;DHT22;3522;50.856;7.278;2022-11-24T19:39:25;6.80;99.90
6964;DHT22;3522;50.856;7.278;2022-11-24T19:41:52;6.80;99.90
6964;DHT22;3522;50.856;7.278;2022-11-24T19:44:19;6.80;99.90
6964;DHT22;3522;50.856;7.278;2022-11-24T19:46:46;6.80;99.90
6964;DHT22;3522;50.856;7.278;2022-11-24T19:49:12;6.80;99.90
6964;DHT22;3522;50.856;7.278;2022-11-24T19:51:39;6.80;99.90
6964;DHT22;3522;50.856;7.278;2022-11-24T19:54:06;6.80;99.90
6964;DHT22;3522;50.856;7.278;2022-11-24T19:56:33;6.80;99.90
6964;DHT22;3522;50.856;7.278;2022-11-24T19:59:02;6.70;99.90
6964;DHT22;3522;50.856;7.278;2022-11-24T20:01:30;6.70;99.90
6964;DHT22;3522;50.856;7.278;2022-11-24T20:03:57;6.70;99.90
6964;DHT22;3522;50.856;7.278;2022-11-24T20:06:25;6.70;99.90
6964;DHT22;3522;50.856;7.278;2022-11-24T20:08:51;6.70;99.90
6964;DHT22;3522;50.856;7.278;2022-11-24T20:11:19;6.70;99.90
6964;DHT22;3522;50.856;7.278;2022-11-24T20:13:47;6.70;99.90
6964;DHT22;3522;50.856;7.278;2022-11-24T20:16:16;6.70;99.90
6964;DHT22;3522;50.856;7.278;2022-11-24T20:18:43;6.70;99.90
6964;DHT22;3522;50.856;7.278;2022-11-24T20:21:11;6.70;99.90
6964;DHT22;3522;50.856;7.278;2022-11-24T20:23:38;6.70;99.90
6964;DHT22;3522;50.856;7.278;2022-11-24T20:26:05;6.70;99.90
6964;DHT22;3522;50.856;7.278;2022-11-24T20:28:32;6.70;99.90
6964;DHT22;3522;50.856;7.278;2022-11-24T20:31:01;6.70;99.90
6964;DHT22;3522;50.856;7.278;2022-11-24T20:33:30;6.70;99.90
6964;DHT22;3522;50.856;7.278;2022-11-24T20:36:00;6.80;99.90
6964;DHT22;3522;50.856;7.278;2022-11-24T20:38:27;6.80;99.90
6964;DHT22;3522;50.856;7.278;2022-11-24T20:40:58;6.80;99.90
6964;DHT22;3522;50.856;7.278;2022-11-24T20:43:26;6.80;99.90
6964;DHT22;3522;50.856;7.278;2022-11-24T20:45:53;6.80;99.90
6964;DHT22;3522;50.856;7.278;2022-11-24T20:48:20;6.80;99.90
6964;DHT22;3522;50.856;7.278;2022-11-24T20:50:48;6.80;99.90
6964;DHT22;3522;50.856;7.278;2022-11-24T20:53:14;6.80;99.90
6964;DHT22;3522;50.856;7.278;2022-11-24T20:55:41;6.80;99.90
6964;DHT22;3522;50.856;7.278;2022-11-24T20:58:07;6.80;99.90
6964;DHT22;3522;50.856;7.278;2022-11-24T21:00:34;6.80;99.90
6964;DHT22;3522;50.856;7.278;2022-11-24T21:03:00;6.80;99.90
6964;DHT22;3522;50.856;7.278;2022-11-24T21:05:27;6.80;99.90
6964;DHT22;3522;50.856;7.278;2022-11-24T21:07:55;6.80;99.90
6964;DHT22;3522;50.856;7.278;2022-11-24T21:10:21;6.70;99.90
6964;DHT22;3522;50.856;7.278;2022-11-24T21:12:48;6.70;99.90
6964;DHT22;3522;50.856;7.278;2022-11-24T21:15:14;6.70;99.90
6964;DHT22;3522;50.856;7.278;2022-11-24T21:17:41;6.70;99.90
6964;DHT22;3522;50.856;7.278;2022-11-24T21:20:08;6.70;99.90
6964;DHT22;3522;50.856;7.278;2022-11-24T21:22:35;6.70;99.90
6964;DHT22;3522;50.856;7.278;2022-11-24T21:25:05;6.70;99.90
6964;DHT22;3522;50.856;7.278;2022-11-24T21:27:31;6.60;99.90
6964;DHT22;3522;50.856;7.278;2022-11-24T21:29:58;6.60;99.90
6964;DHT22;3522;50.856;7.278;2022-11-24T21:32:24;6.60;99.90
6964;DHT22;3522;50.856;7.278;2022-11-24T21:34:52;6.60;99.90
6964;DHT22;3522;50.856;7.278;2022-11-24T21:37:19;6.60;99.90
6964;DHT22;3522;50.856;7.278;2022-11-24T21:39:45;6.60;99.90
6964;DHT22;3522;50.856;7.278;2022-11-24T21:42:13;6.60;99.90
6964;DHT22;3522;50.856;7.278;2022-11-24T21:44:40;6.60;99.90
6964;DHT22;3522;50.856;7.278;2022-11-24T21:47:06;6.60;99.90
6964;DHT22;3522;50.856;7.278;2022-11-24T21:49:33;6.60;99.90
6964;DHT22;3522;50.856;7.278;2022-11-24T21:52:00;6.50;99.90
6964;DHT22;3522;50.856;7.278;2022-11-24T21:54:26;6.50;99.90
6964;DHT22;3522;50.856;7.278;2022-11-24T21:56:53;6.50;99.90
6964;DHT22;3522;50.856;7.278;2022-11-24T21:59:21;6.50;99.90
6964;DHT22;3522;50.856;7.278;2022-11-24T22:01:48;6.50;99.90
6964;DHT22;3522;50.856;7.278;2022-11-24T22:04:14;6.50;99.90
6964;DHT22;3522;50.856;7.278;2022-11-24T22:06:41;6.40;99.90
6964;DHT22;3522;50.856;7.278;2022-11-24T22:09:09;6.50;99.90
6964;DHT22;3522;50.856;7.278;2022-11-24T22:11:35;6.40;99.90
6964;DHT22;3522;50.856;7.278;2022-11-24T22:14:02;6.40;99.90
6964;DHT22;3522;50.856;7.278;2022-11-24T22:16:30;6.40;99.90
6964;DHT22;3522;50.856;7.278;2022-11-24T22:18:58;6.40;99.90
6964;DHT22;3522;50.856;7.278;2022-11-24T22:21:24;6.40;99.90
6964;DHT22;3522;50.856;7.278;2022-11-24T22:23:54;6.40;99.90
6964;DHT22;3522;50.856;7.278;2022-11-24T22:26:21;6.30;99.90
6964;DHT22;3522;50.856;7.278;2022-11-24T22:28:48;6.30;99.90
6964;DHT22;3522;50.856;7.278;2022-11-24T22:31:16;6.30;99.90
6964;DHT22;3522;50.856;7.278;2022-11-24T22:33:44;6.30;99.90
6964;DHT22;3522;50.856;7.278;2022-11-24T22:36:12;6.30;99.90
6964;DHT22;3522;50.856;7.278;2022-11-24T22:38:39;6.30;99.90
6964;DHT22;3522;50.856;7.278;2022-11-24T22:41:06;6.40;99.90
6964;DHT22;3522;50.856;7.278;2022-11-24T22:43:33;6.40;99.90
6964;DHT22;3522;50.856;7.278;2022-11-24T22:46:01;6.40;99.90
6964;DHT22;3522;50.856;7.278;2022-11-24T22:48:27;6.50;99.90
6964;DHT22;3522;50.856;7.278;2022-11-24T22:51:00;6.50;99.90
6964;DHT22;3522;50.856;7.278;2022-11-24T22:53:26;6.50;99.90
6964;DHT22;3522;50.856;7.278;2022-11-24T22:55:53;6.50;99.90
6964;DHT22;3522;50.856;7.278;2022-11-24T22:58:20;6.50;99.90
6964;DHT22;3522;50.856;7.278;2022-11-24T23:00:46;6.50;99.90
6964;DHT22;3522;50.856;7.278;2022-11-24T23:03:13;6.50;99.90
6964;DHT22;3522;50.856;7.278;2022-11-24T23:05:39;6.50;99.90
6964;DHT22;3522;50.856;7.278;2022-11-24T23:08:07;6.60;99.90
6964;DHT22;3522;50.856;7.278;2022-11-24T23:10:34;6.50;99.90
6964;DHT22;3522;50.856;7.278;2022-11-24T23:13:00;6.50;99.90
6964;DHT22;3522;50.856;7.278;2022-11-24T23:15:27;6.50;99.90
6964;DHT22;3522;50.856;7.278;2022-11-24T23:17:53;6.50;99.90
6964;DHT22;3522;50.856;7.278;2022-11-24T23:20:20;6.50;99.90
6964;DHT22;3522;50.856;7.278;2022-11-24T23:22:47;6.40;99.90
6964;DHT22;3522;50.856;7.278;2022-11-24T23:25:14;6.40;99.90
6964;DHT22;3522;50.856;7.278;2022-11-24T23:27:41;6.40;99.90
6964;DHT22;3522;50.856;7.278;2022-11-24T23:30:08;6.40;99.90
6964;DHT22;3522;50.856;7.278;2022-11-24T23:32:34;6.30;99.90
6964;DHT22;3522;50.856;7.278;2022-11-24T23:35:01;6.40;99.90
6964;DHT22;3522;50.856;7.278;2022-11-24T23:37:27;6.40;99.90
6964;DHT22;3522;50.856;7.278;2022-11-24T23:39:54;6.30;99.90
6964;DHT22;3522;50.856;7.278;2022-11-24T23:42:22;6.30;99.90
6964;DHT22;3522;50.856;7.278;2022-11-24T23:44:48;6.30;99.90
6964;DHT22;3522;50.856;7.278;2022-11-24T23:47:15;6.40;99.90
6964;DHT22;3522;50.856;7.278;2022-11-24T23:49:42;6.40;99.90
6964;DHT22;3522;50.856;7.278;2022-11-24T23:52:08;6.40;99.90
6964;DHT22;3522;50.856;7.278;2022-11-24T23:54:35;6.40;99.90
6964;DHT22;3522;50.856;7.278;2022-11-24T23:57:01;6.40;99.90
6964;DHT22;3522;50.856;7.278;2022-11-24T23:59:29;6.40;99.90
